Overview Statistics Trail Chart Weather Telemetry Raw packets
 

This is the latest recevied weather packets stored in our database for station/object IW8ELN-10. If no packets are shown the sender has not sent any weather packets the latest 10 day(s).

<< 1 2 3 4 5 >>
Time Temp. Humidity Pressure Rain* Wind** Luminosity Snow
1788432782 25° C 51% 990.2 hPa - - - -
1788429182 25° C 51% 991 hPa - - - -
1788425588 23.89° C 60% 991.3 hPa - - - -
1788421981 23.33° C 63% 991.4 hPa - - - -
1788414789 22.78° C 61% 991.8 hPa - - - -
1788411188 22.78° C 60% 991.4 hPa - - - -
1788386001 24.44° C 61% 991.6 hPa - - - -
1788378787 25° C 58% 991.7 hPa - - - -
1788375180 25.56° C 56% 990.9 hPa - - - -
1788367980 27.22° C 50% 990.2 hPa - - - -
1788360786 27.22° C 49% 990.1 hPa - - - -
1788357186 27.78° C 45% 990.4 hPa - - - -
1788353586 27.22° C 45% 990.8 hPa - - - -
1788349979 26.11° C 49% 991.3 hPa - - - -
1788346386 25° C 59% 991.5 hPa - - - -
1788342786 24.44° C 60% 992.2 hPa - - - -
1788339179 23.89° C 61% 992.6 hPa - - - -
1788331979 23.33° C 63% 992.8 hPa - - - -
1788324779 23.33° C 62% 992.4 hPa - - - -
1788321178 23.33° C 63% 992.3 hPa - - - -
1788317579 23.33° C 64% 992.2 hPa - - - -
1788313978 23.33° C 64% 992.1 hPa - - - -
1788310378 23.33° C 65% 992.4 hPa - - - -
1788306778 23.89° C 65% 992.3 hPa - - - -
1788303178 23.89° C 65% 992.2 hPa - - - -

* Rain since midnight (hover to see other rain measurements)
** Current wind speed in m/s (hover to see current wind gust speed)